Time;durP1;ratioP1;P1;durP2;ratioP2;P2;SDS_P1;SDS_P2;PMS_P1;PMS_P2;Temp;Humidity;BMP_temperature;BMP_pressure;BME280_temperature;BME280_humidity;BME280_pressure;Samples;Min_cycle;Max_cycle;Signal;HPM_P1;HPM_P2
2023/04/23 00:00:05;;;;;;;5.53;3.50;;;20.10;53.50;;;;;;5084676;28;21310;-85
2023/04/23 00:02:45;;;;;;;3.70;3.40;;;20.00;53.20;;;;;;5110536;27;20450;-85
2023/04/23 00:05:13;;;;;;;4.17;3.20;;;19.80;53.10;;;;;;5092956;27;20644;-87
2023/04/23 00:07:41;;;;;;;3.43;3.13;;;19.60;53.30;;;;;;5071157;27;20458;-88
2023/04/23 00:10:10;;;;;;;6.90;3.43;;;19.50;53.60;;;;;;5057738;28;21028;-86
2023/04/23 00:12:37;;;;;;;3.40;3.10;;;19.30;53.70;;;;;;5076623;27;20470;-86
2023/04/23 00:15:07;;;;;;;3.87;3.03;;;19.20;54.50;;;;;;5108680;27;20725;-86
2023/04/23 00:17:34;;;;;;;3.40;3.10;;;19.30;54.10;;;;;;5092207;27;20461;-85
2023/04/23 00:20:02;;;;;;;4.73;3.60;;;18.90;54.40;;;;;;5071715;28;20477;-86
2023/04/23 00:22:29;;;;;;;3.97;3.40;;;19.00;54.80;;;;;;5040630;28;20451;-86
2023/04/23 00:24:56;;;;;;;4.20;3.23;;;18.90;55.00;;;;;;5081235;28;20507;-85
2023/04/23 00:27:23;;;;;;;3.63;3.33;;;18.70;55.70;;;;;;5066628;28;20979;-85
2023/04/23 00:29:50;;;;;;;6.23;3.57;;;18.80;55.40;;;;;;5047452;27;20738;-86
2023/04/23 00:32:17;;;;;;;3.53;3.20;;;18.80;55.20;;;;;;5059281;28;21063;-87
2023/04/23 00:34:47;;;;;;;3.27;2.97;;;18.90;55.10;;;;;;5089215;28;20471;-86
2023/04/23 00:37:16;;;;;;;4.50;3.70;;;18.90;55.00;;;;;;5068658;28;20454;-86
2023/04/23 00:39:43;;;;;;;6.20;3.80;;;18.90;55.00;;;;;;5059506;27;20454;-86
2023/04/23 00:42:11;;;;;;;3.83;3.27;;;18.60;55.30;;;;;;5076038;28;20940;-84
2023/04/23 00:44:39;;;;;;;3.97;3.10;;;18.40;55.60;;;;;;5101489;27;20458;-86
2023/04/23 00:47:07;;;;;;;4.33;3.33;;;18.50;55.60;;;;;;5075485;28;20460;-85
2023/04/23 00:49:34;;;;;;;4.07;3.07;;;18.50;56.60;;;;;;5049153;27;20474;-85
2023/04/23 00:52:01;;;;;;;5.27;3.03;;;18.60;55.70;;;;;;5073580;28;20521;-85
2023/04/23 00:54:30;;;;;;;3.27;2.97;;;18.60;55.60;;;;;;5060341;28;20859;-86
2023/04/23 00:56:58;;;;;;;2.83;2.60;;;18.50;56.10;;;;;;5048266;28;20491;-86
2023/04/23 00:59:25;;;;;;;3.80;2.70;;;18.40;55.90;;;;;;5073192;28;20443;-86
2023/04/23 01:01:54;;;;;;;3.20;2.90;;;18.60;56.20;;;;;;5044595;28;20544;-85
2023/04/23 01:04:24;;;;;;;3.50;3.13;;;18.40;56.50;;;;;;5072585;28;20474;-86
2023/04/23 01:06:53;;;;;;;4.87;2.90;;;18.50;56.60;;;;;;5065687;28;20541;-87
2023/04/23 01:09:21;;;;;;;3.60;2.90;;;18.50;56.20;;;;;;5100213;28;20468;-88
2023/04/23 01:11:51;;;;;;;3.60;2.87;;;18.60;56.20;;;;;;5091243;27;20463;-85
2023/04/23 01:14:19;;;;;;;3.83;2.70;;;18.70;56.40;;;;;;5068704;28;20494;-86
2023/04/23 01:16:46;;;;;;;6.73;3.00;;;18.80;56.20;;;;;;5066163;28;20456;-84
2023/04/23 01:19:14;;;;;;;2.70;2.50;;;18.80;56.40;;;;;;5083682;28;20443;-86
2023/04/23 01:21:42;;;;;;;4.20;3.53;;;18.80;56.50;;;;;;5061845;28;20535;-86
2023/04/23 01:24:12;;;;;;;3.63;2.97;;;18.80;56.80;;;;;;5062415;28;20504;-85
2023/04/23 01:26:39;;;;;;;5.33;2.60;;;18.80;56.80;;;;;;5093539;27;20447;-86
2023/04/23 01:29:07;;;;;;;5.80;3.20;;;18.90;56.80;;;;;;5092191;28;20475;-86
2023/04/23 01:31:34;;;;;;;3.33;2.47;;;18.90;57.00;;;;;;5043955;28;20558;-86
2023/04/23 01:34:02;;;;;;;3.73;3.00;;;18.50;57.70;;;;;;5078699;28;20467;-85
2023/04/23 01:36:30;;;;;;;3.80;3.43;;;18.40;58.50;;;;;;5092301;27;20451;-86
2023/04/23 01:38:57;;;;;;;4.23;3.30;;;18.50;58.70;;;;;;5103812;27;20796;-86
2023/04/23 01:41:25;;;;;;;4.40;3.30;;;18.50;58.80;;;;;;5085216;28;20896;-86
2023/04/23 01:43:53;;;;;;;5.10;4.00;;;18.60;58.90;;;;;;5055879;28;20540;-87
2023/04/23 01:46:20;;;;;;;3.63;3.33;;;18.60;58.90;;;;;;5078826;28;20440;-85
2023/04/23 01:48:48;;;;;;;3.63;3.27;;;18.60;58.90;;;;;;5062932;28;20839;-86
2023/04/23 01:51:16;;;;;;;3.23;2.90;;;18.60;59.40;;;;;;5066478;28;20557;-86
2023/04/23 01:53:43;;;;;;;6.23;3.77;;;18.60;59.10;;;;;;5059978;28;20463;-87
2023/04/23 01:56:11;;;;;;;3.53;3.20;;;18.40;59.80;;;;;;5057639;28;20539;-86
2023/04/23 01:58:40;;;;;;;3.43;3.00;;;18.20;59.80;;;;;;5052765;27;20496;-87
2023/04/23 02:01:07;;;;;;;6.40;3.63;;;18.10;60.40;;;;;;5054764;28;20447;-87
2023/04/23 02:03:34;;;;;;;3.93;3.00;;;18.30;60.30;;;;;;5074009;28;20463;-85
2023/04/23 02:06:03;;;;;;;4.00;2.87;;;18.20;60.20;;;;;;5048624;28;20546;-86
2023/04/23 02:08:31;;;;;;;3.23;2.97;;;18.20;60.20;;;;;;5078340;28;20833;-87
2023/04/23 02:10:58;;;;;;;3.50;2.50;;;18.30;60.40;;;;;;5090365;28;20455;-87
2023/04/23 02:13:25;;;;;;;2.63;2.43;;;18.20;60.20;;;;;;5062468;28;20558;-86
2023/04/23 02:15:54;;;;;;;3.80;2.80;;;18.20;60.80;;;;;;5075205;28;20458;-86
2023/04/23 02:18:21;;;;;;;3.37;3.07;;;18.10;60.90;;;;;;5091190;28;21039;-86
2023/04/23 02:20:48;;;;;;;3.70;2.80;;;18.20;60.40;;;;;;5058329;28;21012;-86
2023/04/23 02:23:15;;;;;;;7.63;3.27;;;18.00;60.50;;;;;;5090211;28;20569;-87
2023/04/23 02:25:42;;;;;;;5.60;2.83;;;18.20;60.10;;;;;;5076447;28;20483;-87
2023/04/23 02:28:12;;;;;;;3.97;2.70;;;18.10;60.00;;;;;;5060619;28;20554;-87
2023/04/23 02:30:45;;;;;;;3.20;2.90;;;18.10;60.60;;;;;;5040481;28;20494;-85
2023/04/23 02:33:13;;;;;;;3.00;2.80;;;18.10;60.60;;;;;;5083204;28;20555;-86
2023/04/23 02:35:40;;;;;;;4.50;2.47;;;18.20;60.40;;;;;;5088082;28;20949;-86
2023/04/23 02:38:07;;;;;;;3.17;2.87;;;18.20;60.60;;;;;;5077312;28;20447;-87
2023/04/23 02:40:35;;;;;;;3.07;2.47;;;18.00;60.60;;;;;;5048292;28;20443;-86
2023/04/23 02:43:02;;;;;;;2.47;2.27;;;18.00;60.70;;;;;;5105124;27;20443;-87
2023/04/23 02:45:29;;;;;;;2.63;2.37;;;18.00;60.80;;;;;;5091010;27;20454;-87
2023/04/23 02:47:56;;;;;;;4.20;2.67;;;17.90;60.40;;;;;;5086945;28;20466;-86
2023/04/23 02:50:24;;;;;;;3.20;2.27;;;17.90;61.40;;;;;;5060581;28;20963;-86
2023/04/23 02:52:51;;;;;;;5.13;2.53;;;17.90;61.00;;;;;;5071460;28;21047;-85
2023/04/23 02:55:19;;;;;;;2.87;2.40;;;18.00;60.70;;;;;;5057061;28;20957;-86
2023/04/23 02:57:46;;;;;;;4.40;2.70;;;17.80;60.80;;;;;;5061549;28;20504;-86
2023/04/23 03:00:15;;;;;;;3.10;2.80;;;17.70;61.10;;;;;;5092600;27;20444;-85
2023/04/23 03:02:44;;;;;;;2.17;1.97;;;17.70;61.60;;;;;;5074041;28;20436;-86
2023/04/23 03:05:11;;;;;;;2.23;2.07;;;17.70;61.70;;;;;;5078465;28;20439;-86
2023/04/23 03:07:39;;;;;;;2.17;1.90;;;17.60;62.00;;;;;;5063341;28;20546;-85
2023/04/23 03:10:08;;;;;;;3.93;2.60;;;17.70;61.90;;;;;;5075791;28;20507;-87
2023/04/23 03:12:35;;;;;;;5.00;2.40;;;17.70;61.90;;;;;;5072537;28;20460;-87
2023/04/23 03:15:02;;;;;;;2.97;2.37;;;17.80;62.10;;;;;;5070449;28;20503;-87
2023/04/23 03:17:33;;;;;;;2.37;2.17;;;17.70;61.60;;;;;;5092394;28;20486;-86
2023/04/23 03:20:00;;;;;;;2.23;2.03;;;17.50;62.20;;;;;;5059673;28;20545;-87
2023/04/23 03:22:28;;;;;;;2.47;2.20;;;17.50;62.20;;;;;;5053566;28;20444;-86
2023/04/23 03:24:57;;;;;;;2.40;2.13;;;17.50;62.70;;;;;;5045018;28;20474;-86
2023/04/23 03:27:24;;;;;;;3.20;2.50;;;17.50;62.10;;;;;;5070117;28;20467;-86
2023/04/23 03:29:51;;;;;;;2.57;1.80;;;17.60;61.90;;;;;;5073160;28;20456;-87
2023/04/23 03:32:18;;;;;;;2.00;1.80;;;17.70;62.20;;;;;;5046235;28;20455;-86
2023/04/23 03:34:45;;;;;;;2.73;2.53;;;17.70;62.00;;;;;;5062703;27;20507;-87
2023/04/23 03:37:13;;;;;;;2.13;1.93;;;17.60;62.30;;;;;;5073981;28;20814;-86
2023/04/23 03:39:41;;;;;;;2.30;2.10;;;17.70;62.20;;;;;;5077556;28;20455;-85
2023/04/23 03:42:10;;;;;;;2.33;2.13;;;17.60;61.60;;;;;;5051253;28;20956;-87
2023/04/23 03:44:38;;;;;;;2.50;2.27;;;17.60;62.00;;;;;;5109823;27;20466;-87
2023/04/23 03:47:06;;;;;;;3.77;2.10;;;17.60;61.10;;;;;;5088352;28;20952;-85
2023/04/23 03:49:33;;;;;;;3.03;2.53;;;17.60;61.20;;;;;;5075731;28;20451;-86
2023/04/23 03:52:00;;;;;;;2.50;2.00;;;17.60;61.20;;;;;;5091036;27;21080;-88
2023/04/23 03:54:29;;;;;;;2.47;2.27;;;17.80;60.80;;;;;;5085831;28;20479;-87
2023/04/23 03:57:12;;;;;;;2.63;1.90;;;17.80;60.80;;;;;;5092438;27;20541;-85
2023/04/23 03:59:51;;;;;;;2.10;1.90;;;17.80;60.80;;;;;;5082257;28;20542;-86
2023/04/23 04:02:19;;;;;;;2.77;2.57;;;17.70;60.40;;;;;;5044942;28;20451;-87
2023/04/23 04:04:48;;;;;;;2.53;2.20;;;17.50;60.00;;;;;;5079269;28;20774;-85
2023/04/23 04:07:17;;;;;;;2.03;1.93;;;17.50;60.10;;;;;;5069034;28;20442;-86
2023/04/23 04:09:45;;;;;;;2.43;2.23;;;17.60;60.30;;;;;;5063297;27;20550;-87
2023/04/23 04:12:14;;;;;;;2.80;2.57;;;17.70;59.50;;;;;;5084451;28;20461;-86
2023/04/23 04:14:43;;;;;;;2.50;2.30;;;17.70;59.30;;;;;;5092195;28;20479;-86
2023/04/23 04:17:11;;;;;;;4.70;2.17;;;17.80;59.20;;;;;;5109527;27;20523;-86
2023/04/23 04:19:38;;;;;;;2.23;2.03;;;17.80;58.90;;;;;;5050544;28;20753;-86
2023/04/23 04:22:05;;;;;;;2.10;1.90;;;17.80;59.30;;;;;;5064644;27;20531;-86
2023/04/23 04:24:32;;;;;;;2.90;2.23;;;18.00;59.10;;;;;;5047586;28;20557;-87
2023/04/23 04:27:00;;;;;;;2.17;1.80;;;18.20;58.80;;;;;;5075128;27;20450;-87
2023/04/23 04:29:29;;;;;;;4.10;2.47;;;18.30;58.50;;;;;;5075446;28;20461;-86
2023/04/23 04:31:57;;;;;;;1.73;1.63;;;18.40;58.40;;;;;;5060822;28;20467;-86
2023/04/23 04:34:24;;;;;;;1.90;1.80;;;18.40;58.50;;;;;;5068075;28;20567;-87
2023/04/23 04:36:52;;;;;;;2.30;2.20;;;18.50;58.30;;;;;;5091402;28;20463;-86
2023/04/23 04:39:19;;;;;;;6.40;2.10;;;18.50;57.90;;;;;;5050892;28;20473;-85
2023/04/23 04:41:47;;;;;;;2.40;2.20;;;18.50;57.70;;;;;;5076028;28;20436;-85
2023/04/23 04:44:15;;;;;;;2.40;2.20;;;18.40;57.80;;;;;;5072305;28;20495;-85
2023/04/23 04:46:43;;;;;;;2.30;1.83;;;18.40;57.90;;;;;;5090826;28;20443;-85
2023/04/23 04:49:11;;;;;;;2.00;1.80;;;18.40;58.30;;;;;;5042558;28;20554;-86
2023/04/23 04:51:39;;;;;;;3.10;2.80;;;18.40;58.30;;;;;;5083979;28;20431;-85
2023/04/23 04:54:07;;;;;;;2.90;2.23;;;18.40;58.30;;;;;;5091510;28;21012;-86
2023/04/23 04:56:34;;;;;;;2.40;2.20;;;18.20;58.40;;;;;;5077882;28;20448;-87
2023/04/23 04:59:01;;;;;;;2.17;2.03;;;18.00;59.30;;;;;;5049725;28;20439;-87
2023/04/23 05:01:28;;;;;;;2.60;2.40;;;18.00;59.30;;;;;;5048532;28;20812;-86
2023/04/23 05:03:57;;;;;;;2.77;2.57;;;18.00;59.60;;;;;;5048345;28;21230;-87
2023/04/23 05:06:24;;;;;;;5.10;2.40;;;18.00;59.60;;;;;;5051078;28;20455;-87
2023/04/23 05:08:51;;;;;;;8.33;2.57;;;18.00;59.70;;;;;;5082223;28;20527;-85
2023/04/23 05:11:19;;;;;;;6.97;4.40;;;17.90;59.80;;;;;;5085617;28;20550;-87
2023/04/23 05:13:48;;;;;;;6.37;4.50;;;17.90;59.60;;;;;;5082253;27;21273;-86
2023/04/23 05:16:15;;;;;;;7.70;5.13;;;18.10;59.60;;;;;;5057208;28;20517;-86
2023/04/23 05:18:43;;;;;;;24.77;14.60;;;18.30;59.20;;;;;;5049376;28;20810;-87
2023/04/23 05:21:11;;;;;;;12.93;8.00;;;18.30;59.00;;;;;;5072981;28;20457;-87
2023/04/23 05:23:39;;;;;;;4.30;3.47;;;18.20;59.00;;;;;;5046646;28;20535;-87
2023/04/23 05:26:06;;;;;;;9.33;3.07;;;18.20;59.00;;;;;;5073985;28;20578;-86
2023/04/23 05:28:34;;;;;;;2.77;2.50;;;18.10;59.00;;;;;;5081671;28;20459;-85
2023/04/23 05:31:02;;;;;;;3.63;3.33;;;18.10;58.70;;;;;;5070636;28;20448;-87
2023/04/23 05:33:30;;;;;;;3.23;2.93;;;18.10;58.70;;;;;;5054419;28;20568;-87
2023/04/23 05:35:58;;;;;;;3.13;2.93;;;18.10;58.60;;;;;;5073873;28;20451;-86
2023/04/23 05:38:27;;;;;;;5.57;3.10;;;17.90;58.40;;;;;;5089163;27;20500;-86
2023/04/23 05:40:54;;;;;;;4.70;3.17;;;17.80;58.70;;;;;;5065478;28;20471;-85
2023/04/23 05:43:22;;;;;;;4.67;3.50;;;18.00;59.00;;;;;;5090194;28;20996;-86
2023/04/23 05:45:49;;;;;;;3.03;2.80;;;17.70;58.50;;;;;;5089550;27;20543;-86
2023/04/23 05:48:16;;;;;;;4.80;3.20;;;17.60;58.70;;;;;;5065697;28;20494;-87
2023/04/23 05:50:43;;;;;;;3.43;3.13;;;17.60;59.00;;;;;;5073291;28;20582;-86
2023/04/23 05:53:10;;;;;;;3.37;2.67;;;17.60;58.70;;;;;;5048236;28;20494;-87
2023/04/23 05:55:38;;;;;;;3.03;2.73;;;17.70;58.90;;;;;;5074515;28;20469;-86
2023/04/23 05:58:06;;;;;;;2.93;2.63;;;17.80;58.90;;;;;;5065427;28;20478;-86
2023/04/23 06:00:34;;;;;;;3.70;2.73;;;17.80;58.60;;;;;;5049121;28;20454;-85
2023/04/23 06:03:01;;;;;;;3.37;2.47;;;17.70;58.30;;;;;;5089989;28;20447;-88
2023/04/23 06:05:28;;;;;;;3.40;3.10;;;17.80;58.10;;;;;;5048365;28;20483;-86
2023/04/23 06:07:55;;;;;;;2.80;2.60;;;17.90;58.10;;;;;;5082428;28;20512;-86
2023/04/23 06:10:22;;;;;;;2.77;2.53;;;17.80;58.30;;;;;;5066556;28;20462;-86
2023/04/23 06:12:53;;;;;;;3.37;3.07;;;17.90;57.80;;;;;;5092630;27;20552;-87
2023/04/23 06:15:20;;;;;;;2.90;2.70;;;18.00;57.90;;;;;;5088396;28;20452;-88
2023/04/23 06:17:47;;;;;;;4.23;2.43;;;18.20;58.30;;;;;;5062008;28;20948;-87
2023/04/23 06:20:14;;;;;;;2.50;2.30;;;18.40;57.70;;;;;;5073979;28;20454;-86
2023/04/23 06:22:41;;;;;;;3.67;2.67;;;18.40;57.80;;;;;;5055402;28;20757;-86
2023/04/23 06:25:09;;;;;;;2.83;2.60;;;18.40;57.40;;;;;;5081045;28;20625;-86
2023/04/23 06:27:36;;;;;;;3.23;2.83;;;18.10;57.50;;;;;;5064293;28;20482;-86
2023/04/23 06:30:12;;;;;;;2.47;2.27;;;18.40;57.40;;;;;;5041826;28;20447;-88
2023/04/23 06:32:39;;;;;;;3.63;2.93;;;18.50;57.50;;;;;;5076555;28;20549;-88
2023/04/23 06:35:07;;;;;;;2.70;2.47;;;18.40;57.30;;;;;;5092674;28;20478;-87
2023/04/23 06:37:34;;;;;;;5.23;2.80;;;18.50;56.70;;;;;;5080573;28;20451;-88
2023/04/23 06:40:01;;;;;;;3.70;2.30;;;18.50;56.50;;;;;;5059727;28;20526;-87
2023/04/23 06:42:28;;;;;;;2.67;2.47;;;18.60;56.40;;;;;;5048915;28;20961;-85
2023/04/23 06:45:15;;;;;;;2.53;2.33;;;18.60;55.90;;;;;;5106482;27;20480;-87
2023/04/23 06:47:42;;;;;;;2.50;2.30;;;18.70;56.30;;;;;;5048736;28;20470;-86
2023/04/23 06:50:09;;;;;;;2.63;2.40;;;18.70;56.30;;;;;;5073754;28;20451;-87
2023/04/23 06:52:36;;;;;;;2.50;2.30;;;18.80;55.90;;;;;;5048734;28;20440;-88
2023/04/23 06:55:03;;;;;;;3.13;2.50;;;19.00;55.60;;;;;;5073270;28;20464;-87
2023/04/23 06:57:30;;;;;;;3.40;3.10;;;19.00;55.70;;;;;;5048470;28;20458;-88
2023/04/23 06:59:57;;;;;;;2.33;2.13;;;18.90;55.60;;;;;;5048133;28;20494;-86
2023/04/23 07:02:30;;;;;;;2.67;2.47;;;18.80;55.30;;;;;;5081888;28;20937;-86
2023/04/23 07:04:57;;;;;;;3.30;2.43;;;18.60;55.20;;;;;;5062354;28;20947;-88
2023/04/23 07:07:24;;;;;;;2.63;2.43;;;18.70;56.20;;;;;;5055798;28;20450;-87
2023/04/23 07:09:52;;;;;;;2.67;2.07;;;18.50;55.80;;;;;;5063030;28;20526;-86
2023/04/23 07:12:19;;;;;;;2.20;2.10;;;18.40;55.60;;;;;;5073928;28;20581;-86
2023/04/23 07:14:46;;;;;;;1.83;1.73;;;18.60;55.70;;;;;;5054645;28;20571;-87
2023/04/23 07:17:13;;;;;;;2.60;2.40;;;18.90;56.10;;;;;;5091162;28;20458;-87
2023/04/23 07:19:42;;;;;;;2.00;1.80;;;19.20;55.60;;;;;;5047929;28;20443;-85
2023/04/23 07:22:09;;;;;;;2.57;2.37;;;19.40;55.50;;;;;;5061789;28;20836;-86
2023/04/23 07:24:36;;;;;;;2.60;2.40;;;19.20;54.10;;;;;;5065379;28;20490;-86
2023/04/23 07:27:03;;;;;;;2.00;1.90;;;19.30;54.40;;;;;;5087149;28;20907;-86
2023/04/23 07:29:30;;;;;;;2.47;2.27;;;19.60;54.10;;;;;;5082190;28;20448;-86
2023/04/23 07:31:57;;;;;;;2.30;2.10;;;19.60;53.50;;;;;;5089327;28;20940;-87
2023/04/23 07:34:24;;;;;;;4.53;1.93;;;19.50;52.90;;;;;;5074335;28;20471;-84
2023/04/23 07:36:55;;;;;;;2.40;2.20;;;19.60;52.80;;;;;;5103345;27;20953;-86
2023/04/23 07:39:22;;;;;;;2.50;2.30;;;19.70;52.90;;;;;;5051960;28;20435;-86
2023/04/23 07:41:49;;;;;;;3.80;2.70;;;19.60;52.90;;;;;;5072511;28;20469;-86
2023/04/23 07:44:16;;;;;;;1.90;1.80;;;19.80;52.90;;;;;;5089709;28;20465;-87
2023/04/23 07:46:43;;;;;;;2.70;2.50;;;20.00;52.80;;;;;;5085497;28;20440;-84
2023/04/23 07:49:10;;;;;;;3.20;2.77;;;20.10;51.40;;;;;;5098956;27;20974;-85
2023/04/23 07:51:37;;;;;;;2.33;2.03;;;19.90;52.30;;;;;;5087571;28;20520;-83
2023/04/23 07:54:05;;;;;;;2.30;2.10;;;19.80;51.70;;;;;;5085977;28;20472;-85
2023/04/23 07:56:32;;;;;;;3.23;2.93;;;19.90;52.30;;;;;;5067453;28;20457;-85
2023/04/23 07:59:00;;;;;;;2.80;2.33;;;19.80;50.40;;;;;;5076379;28;20449;-84
2023/04/23 08:01:27;;;;;;;9.03;2.93;;;19.80;51.60;;;;;;5088657;28;20443;-85
2023/04/23 08:03:54;;;;;;;5.33;2.37;;;19.50;52.50;;;;;;5083729;28;20465;-85
2023/04/23 08:06:22;;;;;;;4.23;3.20;;;19.30;52.10;;;;;;5087964;28;20462;-85
2023/04/23 08:08:49;;;;;;;3.07;2.40;;;19.30;52.40;;;;;;5044451;28;20454;-86
2023/04/23 08:11:18;;;;;;;2.53;2.33;;;19.70;53.00;;;;;;5077574;28;20446;-85
2023/04/23 08:13:45;;;;;;;2.60;2.40;;;19.90;51.80;;;;;;5086956;28;20981;-85
2023/04/23 08:16:12;;;;;;;2.80;2.50;;;20.00;51.80;;;;;;5061526;28;20455;-86
2023/04/23 08:18:39;;;;;;;2.53;2.33;;;20.20;50.90;;;;;;5108349;27;20442;-84
2023/04/23 08:21:06;;;;;;;3.87;3.53;;;20.00;50.30;;;;;;5091370;28;20454;-85
2023/04/23 08:23:33;;;;;;;2.67;2.47;;;20.20;50.40;;;;;;5079432;28;20573;-85
2023/04/23 08:26:01;;;;;;;2.77;2.57;;;20.30;49.90;;;;;;5072750;27;20447;-85
2023/04/23 08:28:30;;;;;;;2.50;2.30;;;20.10;49.80;;;;;;5088513;27;20471;-83
2023/04/23 08:30:57;;;;;;;3.80;3.47;;;20.20;50.60;;;;;;5082841;28;20958;-86
2023/04/23 08:33:24;;;;;;;2.77;2.57;;;20.30;50.10;;;;;;5065033;28;20505;-85
2023/04/23 08:35:51;;;;;;;3.60;3.10;;;20.20;48.80;;;;;;5090355;27;21019;-85
2023/04/23 08:38:18;;;;;;;2.87;2.67;;;19.80;49.90;;;;;;5088934;28;20460;-87
2023/04/23 08:40:48;;;;;;;3.10;2.60;;;20.00;50.70;;;;;;5043648;28;20443;-86
2023/04/23 08:43:18;;;;;;;3.03;2.67;;;20.30;49.30;;;;;;5092404;27;20568;-86
2023/04/23 08:45:49;;;;;;;3.33;3.03;;;20.40;49.30;;;;;;5108926;27;20851;-84
2023/04/23 08:48:16;;;;;;;3.30;3.00;;;20.50;49.10;;;;;;5070736;27;20447;-83
2023/04/23 08:50:44;;;;;;;4.60;2.80;;;20.60;49.10;;;;;;5089184;27;20470;-85
2023/04/23 08:53:17;;;;;;;3.00;2.80;;;20.80;49.30;;;;;;5091506;27;20538;-85
2023/04/23 08:55:45;;;;;;;3.60;2.80;;;20.70;47.70;;;;;;5091247;28;20889;-85
2023/04/23 08:58:13;;;;;;;3.27;2.97;;;20.80;47.40;;;;;;5079423;27;20455;-84
2023/04/23 09:00:40;;;;;;;3.40;3.10;;;20.80;46.90;;;;;;5064756;28;20452;-85
2023/04/23 09:03:09;;;;;;;3.37;2.40;;;20.90;47.60;;;;;;5056976;28;20432;-85
2023/04/23 09:05:37;;;;;;;2.80;2.50;;;20.90;47.90;;;;;;5071878;28;20443;-85
2023/04/23 09:08:04;;;;;;;2.80;2.60;;;21.00;47.10;;;;;;5076759;28;20443;-85
2023/04/23 09:10:34;;;;;;;2.83;2.63;;;20.90;45.70;;;;;;5057706;28;20439;-84
2023/04/23 09:13:01;;;;;;;3.10;2.50;;;21.00;47.30;;;;;;5088108;27;20983;-84
2023/04/23 09:15:28;;;;;;;2.43;2.23;;;21.10;46.60;;;;;;5074092;28;20464;-84
2023/04/23 09:17:55;;;;;;;2.20;2.00;;;21.40;47.00;;;;;;5071082;28;20451;-84
2023/04/23 09:20:23;;;;;;;3.87;2.40;;;21.60;46.50;;;;;;5071743;28;20446;-86
2023/04/23 09:22:52;;;;;;;4.63;2.20;;;21.80;46.30;;;;;;5074854;28;20501;-86
2023/04/23 09:25:21;;;;;;;2.53;2.27;;;22.00;45.30;;;;;;5058389;28;20436;-85
2023/04/23 09:27:49;;;;;;;2.30;2.10;;;22.00;45.00;;;;;;5050678;28;20518;-84
2023/04/23 09:30:17;;;;;;;2.37;2.17;;;22.00;45.50;;;;;;5040696;27;21671;-85
2023/04/23 09:32:46;;;;;;;2.73;2.47;;;22.30;44.80;;;;;;5109055;27;20463;-87
2023/04/23 09:35:15;;;;;;;3.07;2.70;;;22.40;45.50;;;;;;5047257;28;20471;-86
2023/04/23 09:37:47;;;;;;;2.87;2.17;;;22.60;43.90;;;;;;5075868;28;20968;-85
2023/04/23 09:40:15;;;;;;;2.10;1.90;;;22.70;42.50;;;;;;5069946;28;21002;-83
2023/04/23 09:42:48;;;;;;;2.20;1.77;;;22.90;42.60;;;;;;5081059;28;20928;-86
2023/04/23 09:45:15;;;;;;;2.13;1.93;;;23.20;42.50;;;;;;5078744;28;20504;-85
2023/04/23 09:47:54;;;;;;;2.20;2.00;;;23.40;43.60;;;;;;5090117;28;20446;-85
2023/04/23 09:50:33;;;;;;;3.30;2.50;;;23.40;42.50;;;;;;5085039;27;20532;-83
2023/04/23 09:53:01;;;;;;;2.40;2.20;;;23.00;41.10;;;;;;5089423;27;21164;-85
2023/04/23 09:55:33;;;;;;;2.60;2.03;;;22.80;43.10;;;;;;5070503;28;20474;-84
2023/04/23 09:58:02;;;;;;;2.50;2.13;;;22.90;42.70;;;;;;5070200;28;20556;-85
2023/04/23 10:00:33;;;;;;;3.73;2.73;;;23.20;43.30;;;;;;5090468;28;20498;-84
2023/04/23 10:03:01;;;;;;;2.10;1.90;;;23.00;43.00;;;;;;5087956;28;20462;-84
2023/04/23 10:05:28;;;;;;;2.70;2.47;;;22.60;43.70;;;;;;5085794;27;20490;-84
2023/04/23 10:07:57;;;;;;;2.70;2.17;;;22.50;43.40;;;;;;5089001;28;20461;-84
2023/04/23 10:10:25;;;;;;;3.30;2.00;;;22.80;44.90;;;;;;5088797;28;22100;-84
2023/04/23 10:12:54;;;;;;;2.70;2.43;;;22.60;44.00;;;;;;5088289;27;20450;-83
2023/04/23 10:15:25;;;;;;;2.73;2.50;;;22.60;45.70;;;;;;5086297;28;20464;-84
2023/04/23 10:17:52;;;;;;;1.87;1.77;;;22.60;45.10;;;;;;5089561;27;20527;-85
2023/04/23 10:20:22;;;;;;;2.70;2.30;;;22.80;44.50;;;;;;5088566;28;20447;-84
2023/04/23 10:22:52;;;;;;;2.07;1.83;;;23.10;41.20;;;;;;5061691;28;20454;-84
2023/04/23 10:25:21;;;;;;;2.73;2.43;;;23.20;41.60;;;;;;5089847;27;20705;-86
2023/04/23 10:27:51;;;;;;;3.10;1.90;;;23.30;43.00;;;;;;5062054;28;20446;-85
2023/04/23 10:30:20;;;;;;;4.50;2.10;;;23.40;41.90;;;;;;5089900;28;20542;-85
2023/04/23 10:32:51;;;;;;;2.57;2.43;;;23.00;42.20;;;;;;5092364;28;20462;-87
2023/04/23 10:35:18;;;;;;;2.90;2.00;;;23.30;42.30;;;;;;5054247;28;20545;-85
2023/04/23 10:37:47;;;;;;;3.63;2.30;;;23.40;37.50;;;;;;5060421;28;20448;-85
2023/04/23 10:40:18;;;;;;;2.30;2.10;;;23.30;39.50;;;;;;5063448;28;20440;-84
2023/04/23 10:42:46;;;;;;;2.37;2.17;;;23.30;39.70;;;;;;5075504;28;20549;-85
2023/04/23 10:45:17;;;;;;;2.33;1.80;;;23.50;37.40;;;;;;5087375;28;20456;-86
2023/04/23 10:47:45;;;;;;;2.33;2.10;;;24.00;39.50;;;;;;5049852;28;20463;-84
2023/04/23 10:50:19;;;;;;;4.03;2.00;;;24.00;37.20;;;;;;5088565;28;20446;-85
2023/04/23 10:52:50;;;;;;;2.03;1.93;;;24.00;37.90;;;;;;5092893;28;20951;-85
2023/04/23 10:55:18;;;;;;;2.20;2.00;;;24.30;37.80;;;;;;5055656;28;20475;-85
2023/04/23 10:57:57;;;;;;;2.27;2.07;;;24.50;37.10;;;;;;5083619;28;20479;-85
2023/04/23 11:00:26;;;;;;;2.80;2.40;;;24.60;37.50;;;;;;5049093;28;20652;-85
2023/04/23 11:02:53;;;;;;;2.17;2.00;;;24.40;36.30;;;;;;5042955;28;20442;-84
2023/04/23 11:05:22;;;;;;;2.53;2.33;;;24.30;36.70;;;;;;5086674;28;21028;-86
2023/04/23 11:08:06;;;;;;;3.20;2.50;;;24.40;37.00;;;;;;5057251;28;20996;-85
2023/04/23 11:10:34;;;;;;;4.03;2.27;;;24.20;37.90;;;;;;5057677;28;20444;-84
2023/04/23 11:13:23;;;;;;;2.80;1.87;;;24.00;36.30;;;;;;5057435;28;20457;-84
2023/04/23 11:16:17;;;;;;;2.23;2.03;;;23.50;36.50;;;;;;5106422;27;21047;-86
2023/04/23 11:19:05;;;;;;;4.30;1.70;;;23.70;37.20;;;;;;5089817;28;20447;-85
2023/04/23 11:22:00;;;;;;;1.87;1.77;;;23.90;37.30;;;;;;5071812;28;20968;-84
2023/04/23 11:24:29;;;;;;;3.17;1.53;;;23.80;35.10;;;;;;5091483;28;20554;-84
2023/04/23 11:26:57;;;;;;;6.90;2.07;;;23.80;34.80;;;;;;5048123;28;20459;-86
2023/04/23 11:29:25;;;;;;;1.50;1.40;;;23.80;35.60;;;;;;5090980;28;20960;-87
2023/04/23 11:31:55;;;;;;;4.37;1.80;;;24.00;36.00;;;;;;5075879;28;20461;-86
2023/04/23 11:34:23;;;;;;;1.77;1.67;;;24.20;35.80;;;;;;5088683;28;20499;-86
2023/04/23 11:36:52;;;;;;;3.30;1.90;;;24.50;34.40;;;;;;5081999;28;20439;-86
2023/04/23 11:39:20;;;;;;;1.90;1.80;;;24.50;34.80;;;;;;5068449;28;20470;-87
2023/04/23 11:41:48;;;;;;;1.80;1.70;;;24.20;32.80;;;;;;5082400;28;20475;-85
2023/04/23 11:44:15;;;;;;;2.93;2.00;;;24.00;35.10;;;;;;5087713;28;20477;-85
2023/04/23 11:46:42;;;;;;;2.13;1.93;;;24.20;35.20;;;;;;5072522;28;20460;-84
2023/04/23 11:49:12;;;;;;;1.83;1.73;;;24.50;35.50;;;;;;5036807;28;20982;-86
2023/04/23 11:51:43;;;;;;;2.00;1.90;;;24.90;36.10;;;;;;5049155;28;20448;-85
2023/04/23 11:54:10;;;;;;;2.40;2.20;;;25.20;33.40;;;;;;5086428;28;21007;-84
2023/04/23 11:56:38;;;;;;;1.90;1.80;;;25.30;33.20;;;;;;5046071;28;20470;-85
2023/04/23 11:59:06;;;;;;;2.37;1.60;;;25.40;33.70;;;;;;5049497;28;21026;-85
2023/04/23 12:01:53;;;;;;;2.40;1.93;;;25.10;33.80;;;;;;5094755;27;21161;-86
2023/04/23 12:04:23;;;;;;;1.80;1.70;;;25.10;34.30;;;;;;5074876;28;20557;-85
2023/04/23 12:06:52;;;;;;;1.73;1.63;;;25.10;33.10;;;;;;5077159;28;20447;-85
2023/04/23 12:09:21;;;;;;;1.97;1.77;;;25.40;33.30;;;;;;5051560;28;20459;-85
2023/04/23 12:11:50;;;;;;;1.70;1.60;;;25.40;32.50;;;;;;5095298;28;20486;-84
2023/04/23 12:14:19;;;;;;;5.23;4.83;;;24.70;33.40;;;;;;5050750;28;20476;-85
2023/04/23 12:16:51;;;;;;;2.20;1.60;;;24.60;33.70;;;;;;5076570;28;20562;-85
2023/04/23 12:19:21;;;;;;;1.80;1.70;;;24.40;34.20;;;;;;5093948;27;20941;-85
2023/04/23 12:21:53;;;;;;;3.47;1.73;;;24.30;34.30;;;;;;5073992;28;20448;-84
2023/04/23 12:24:21;;;;;;;4.17;1.60;;;24.50;35.00;;;;;;5110095;27;20458;-83
2023/04/23 12:26:54;;;;;;;2.50;1.97;;;24.10;34.40;;;;;;5110161;27;20444;-83
2023/04/23 12:29:22;;;;;;;2.83;1.83;;;23.30;36.40;;;;;;5094815;28;20457;-85
2023/04/23 12:31:51;;;;;;;2.00;1.80;;;23.20;36.30;;;;;;5070080;28;21391;-84
2023/04/23 12:34:19;;;;;;;1.70;1.60;;;23.30;35.90;;;;;;5068249;28;20462;-84
2023/04/23 12:36:51;;;;;;;1.53;1.43;;;23.40;35.60;;;;;;5086824;28;20528;-83
2023/04/23 12:39:19;;;;;;;3.07;1.50;;;24.00;36.30;;;;;;5060203;28;21929;-83
2023/04/23 12:41:46;;;;;;;1.40;1.30;;;24.10;35.90;;;;;;5056186;28;20455;-84
2023/04/23 12:44:14;;;;;;;1.60;1.50;;;24.10;35.00;;;;;;5105116;28;20532;-85
2023/04/23 12:46:41;;;;;;;1.60;1.50;;;24.30;35.00;;;;;;5080409;28;21079;-83
2023/04/23 12:49:08;;;;;;;1.50;1.30;;;24.30;34.60;;;;;;5052839;28;20483;-83
2023/04/23 12:51:35;;;;;;;4.03;1.30;;;24.50;36.10;;;;;;5049523;28;20455;-83